Strauss, Kansas
Current Conditions -  °F | °C
As of 10:15 PM on Tuesday 27 Jan 2015 (Local Time) from KPTS Reporting Station
Clear Clear  
Wind Chill: 47°   Ceiling: Unl
Heat Index: 48°   Visibility: 10mi
Dew Point: 32°   Wind: 5mph
Humidity: 54%   Direction: 130°SE
Pressure: 30.05"   Gusts: NA
Location:  37.3318°N, 95.0213°W
Report Text: KPTS 280415Z AUTO 13004KT 10SM CLR 09/00 A3005 RMK AO2 T00910002
Loading
Personal Weather Stations






























Interactive Weather Map New forecast layout! Learn more

10-Day Weather Forecast

Advertisements
Track Severe Weather on mobile